createdAt,value
2022-12-18T00:00:30.495Z,101758.00
2022-12-18T00:03:37.105Z,101689.81
2022-12-18T00:06:39.636Z,101758.84
2022-12-18T00:09:42.317Z,101731.19
2022-12-18T00:12:44.572Z,101770.34
2022-12-18T00:15:47.418Z,101785.16
2022-12-18T00:18:52.733Z,101790.44
2022-12-18T00:21:55.466Z,101792.56
2022-12-18T00:24:57.951Z,101765.94
2022-12-18T00:28:00.675Z,101802.75
2022-12-18T00:31:05.520Z,101806.09
2022-12-18T00:34:10.366Z,101802.47
2022-12-18T00:37:19.886Z,101812.84
2022-12-18T00:40:26.547Z,101805.44
2022-12-18T00:43:29.854Z,101803.84
2022-12-18T00:46:32.733Z,101824.13
2022-12-18T00:49:35.111Z,101819.31
2022-12-18T00:52:37.797Z,101816.31
2022-12-18T00:55:40.894Z,101798.91
2022-12-18T00:58:43.430Z,101805.94
2022-12-18T01:01:47.042Z,101839.25
2022-12-18T01:04:49.803Z,101815.88
2022-12-18T01:07:54.522Z,101804.38
2022-12-18T01:10:57.066Z,101850.59
2022-12-18T01:14:00.869Z,101863.09
2022-12-18T01:17:04.684Z,101855.16
2022-12-18T01:20:09.870Z,101826.09
2022-12-18T01:23:12.417Z,101857.84
2022-12-18T01:26:16.305Z,101871.91
2022-12-18T01:29:19.295Z,101871.06
2022-12-18T01:32:23.067Z,101863.25
2022-12-18T01:35:25.855Z,101777.31
2022-12-18T01:38:30.423Z,101876.59
2022-12-18T01:41:53.899Z,101856.19
2022-12-18T01:45:14.598Z,101881.06
2022-12-18T01:48:18.710Z,101893.78
2022-12-18T01:51:21.661Z,101866.81
2022-12-18T01:54:24.298Z,101887.13
2022-12-18T01:57:27.916Z,101881.34
2022-12-18T02:00:30.696Z,101871.63
2022-12-18T02:03:33.249Z,101900.22
2022-12-18T02:06:42.349Z,101840.94
2022-12-18T02:10:14.264Z,101869.66
2022-12-18T02:13:19.304Z,101871.78
2022-12-18T02:16:45.827Z,101913.44
2022-12-18T02:20:28.938Z,101924.72
2022-12-18T02:23:42.272Z,101883.28
2022-12-18T02:26:51.242Z,101922.66
2022-12-18T02:29:59.043Z,101923.94
2022-12-18T02:33:07.403Z,101890.41
2022-12-18T02:36:11.944Z,101902.81
2022-12-18T02:39:16.858Z,101909.81
2022-12-18T02:42:20.714Z,101907.09
2022-12-18T02:45:23.783Z,101942.16
2022-12-18T02:48:32.552Z,101939.00
2022-12-18T02:51:49.346Z,101914.03
2022-12-18T02:55:01.514Z,101940.94
2022-12-18T02:58:14.098Z,101955.87
2022-12-18T03:01:38.087Z,101961.28
2022-12-18T03:05:10.120Z,101968.44
2022-12-18T03:08:21.070Z,101950.62
2022-12-18T03:11:48.309Z,101973.88
2022-12-18T03:15:05.559Z,101980.16
2022-12-18T03:18:26.354Z,101956.03
2022-12-18T03:21:50.742Z,101961.59
2022-12-18T03:24:57.244Z,101983.72
2022-12-18T03:28:04.166Z,101981.88
2022-12-18T03:31:10.848Z,101970.56
2022-12-18T03:34:27.468Z,101996.47
2022-12-18T03:37:31.486Z,102007.22
2022-12-18T03:40:52.163Z,101980.25
2022-12-18T03:43:54.874Z,102018.62
2022-12-18T03:47:14.348Z,102026.81
2022-12-18T03:50:38.983Z,102022.72
2022-12-18T03:53:51.003Z,101993.66
2022-12-18T03:57:02.404Z,102012.28
2022-12-18T04:00:12.000Z,101980.38
2022-12-18T04:03:22.582Z,102012.06
2022-12-18T04:06:30.466Z,102022.69
2022-12-18T04:09:35.243Z,102028.16
2022-12-18T04:12:38.825Z,102029.66
2022-12-18T04:15:41.997Z,102027.81
2022-12-18T04:18:45.136Z,102033.19
2022-12-18T04:21:48.956Z,102036.28
2022-12-18T04:24:51.683Z,102031.94
2022-12-18T04:27:55.346Z,101999.81
2022-12-18T04:30:58.530Z,101999.63
2022-12-18T04:34:00.923Z,102037.97
2022-12-18T04:37:03.994Z,102041.06
2022-12-18T04:40:07.358Z,102016.66
2022-12-18T04:43:12.529Z,102055.66
2022-12-18T04:46:15.755Z,102061.84
2022-12-18T04:49:18.556Z,102041.41
2022-12-18T04:52:20.794Z,102063.78
2022-12-18T04:55:23.334Z,102070.41
2022-12-18T04:58:25.603Z,102048.25
2022-12-18T05:01:34.297Z,102081.81
2022-12-18T05:04:37.127Z,102088.91
2022-12-18T05:07:40.143Z,102084.75
2022-12-18T05:10:43.706Z,102059.06
2022-12-18T05:13:46.802Z,102093.69
2022-12-18T05:16:49.062Z,102103.47
2022-12-18T05:19:51.663Z,102050.37
2022-12-18T05:22:54.409Z,102098.97
2022-12-18T05:25:59.794Z,102093.97
2022-12-18T05:29:02.184Z,102102.31
2022-12-18T05:32:05.008Z,102111.06
2022-12-18T05:35:26.035Z,102090.34
2022-12-18T05:38:30.040Z,102121.87
2022-12-18T05:41:32.297Z,102085.59
2022-12-18T05:44:35.045Z,102090.56
2022-12-18T05:47:37.425Z,102124.81
2022-12-18T05:50:42.077Z,102095.16
2022-12-18T05:53:44.535Z,102104.94
2022-12-18T05:56:48.883Z,102110.34
2022-12-18T05:59:51.503Z,102150.59
2022-12-18T06:02:54.151Z,102137.94
2022-12-18T06:05:56.799Z,102116.41
2022-12-18T06:08:59.125Z,102137.78
2022-12-18T06:12:01.630Z,102142.53
2022-12-18T06:15:04.540Z,102155.81
2022-12-18T06:18:07.102Z,102119.47
2022-12-18T06:21:09.385Z,102149.19
2022-12-18T06:24:11.935Z,102157.50
2022-12-18T06:27:14.541Z,102163.94
2022-12-18T06:30:17.207Z,102134.47
2022-12-18T06:33:19.639Z,102146.09
2022-12-18T06:36:22.346Z,102180.16
2022-12-18T06:39:25.130Z,102153.16
2022-12-18T06:42:27.809Z,102147.38
2022-12-18T06:45:30.099Z,102162.94
2022-12-18T06:48:33.387Z,102167.09
2022-12-18T06:51:35.683Z,102177.25
2022-12-18T06:54:38.272Z,102198.44
2022-12-18T06:57:40.533Z,102207.56
2022-12-18T07:00:43.099Z,102218.19
2022-12-18T07:03:46.547Z,102228.38
2022-12-18T07:06:49.063Z,102203.47
2022-12-18T07:09:51.950Z,102202.84
2022-12-18T07:12:54.531Z,102191.44
2022-12-18T07:15:56.849Z,102199.72
2022-12-18T07:18:59.367Z,102227.97
2022-12-18T07:22:02.338Z,102210.31
2022-12-18T07:25:06.184Z,102260.37
2022-12-18T07:28:12.793Z,102260.37
2022-12-18T07:31:21.936Z,102235.47
2022-12-18T07:34:24.498Z,102271.59
2022-12-18T07:37:27.077Z,102279.28
2022-12-18T07:40:29.312Z,102290.75
2022-12-18T07:43:32.074Z,102281.97
2022-12-18T07:46:34.328Z,102277.00
2022-12-18T07:49:37.495Z,102262.03
2022-12-18T07:52:39.773Z,102265.75
2022-12-18T07:56:11.188Z,102296.06
2022-12-18T07:59:06.162Z,102306.03
2022-12-18T08:02:09.198Z,102272.38
2022-12-18T08:05:11.961Z,102315.13
2022-12-18T08:08:14.194Z,102322.56
2022-12-18T08:11:16.788Z,102322.72
2022-12-18T08:14:19.050Z,102325.19
2022-12-18T08:17:22.516Z,102324.16
2022-12-18T08:20:24.913Z,102346.00
2022-12-18T08:23:28.802Z,102336.72
2022-12-18T08:26:32.376Z,102311.59
2022-12-18T08:29:34.980Z,102327.34
2022-12-18T08:32:37.503Z,102338.63
2022-12-18T08:35:45.588Z,102342.09
2022-12-18T08:38:48.608Z,102317.38
2022-12-18T08:42:11.537Z,102350.81
2022-12-18T08:45:13.890Z,102323.38
2022-12-18T08:48:21.862Z,102332.75
2022-12-18T08:51:24.817Z,102356.63
2022-12-18T08:54:27.550Z,102354.00
2022-12-18T08:57:29.843Z,102357.25
2022-12-18T09:00:32.365Z,102333.94
2022-12-18T09:03:34.705Z,102341.31
2022-12-18T09:06:37.413Z,102377.25
2022-12-18T09:09:40.493Z,102358.56
2022-12-18T09:12:43.259Z,102365.53
2022-12-18T09:15:47.986Z,102348.47
2022-12-18T09:18:51.994Z,102384.69
2022-12-18T09:21:54.202Z,102386.06
2022-12-18T09:24:56.719Z,102386.19
2022-12-18T09:27:58.967Z,102378.00
2022-12-18T09:31:08.637Z,102380.91
2022-12-18T09:34:11.156Z,102377.62
2022-12-18T09:37:13.713Z,102381.59
2022-12-18T09:40:19.055Z,102377.06
2022-12-18T09:43:29.070Z,102370.44
2022-12-18T09:46:37.261Z,102380.97
2022-12-18T09:49:49.659Z,102377.72
2022-12-18T09:52:56.974Z,102391.72
2022-12-18T09:56:02.680Z,102381.47
2022-12-18T09:59:05.989Z,102366.97
2022-12-18T10:02:22.358Z,102375.28
2022-12-18T10:05:40.632Z,102358.91
2022-12-18T10:09:12.658Z,102357.56
2022-12-18T10:12:26.135Z,102375.47
2022-12-18T10:15:37.449Z,102376.63
2022-12-18T10:18:57.192Z,102373.13
2022-12-18T10:22:37.462Z,102367.53
2022-12-18T10:26:06.194Z,102366.72
2022-12-18T10:29:13.635Z,102346.97
2022-12-18T10:32:33.951Z,102369.84
2022-12-18T10:35:37.310Z,102366.31
2022-12-18T10:38:40.385Z,102358.75
2022-12-18T10:41:42.900Z,102362.37
2022-12-18T10:44:45.787Z,102358.47
2022-12-18T10:47:50.079Z,102368.56
2022-12-18T10:54:26.011Z,102355.00
2022-12-18T10:57:37.000Z,102359.47
2022-12-18T11:00:39.454Z,102370.84
2022-12-18T11:03:47.905Z,102358.09
2022-12-18T11:07:00.819Z,102343.00
2022-12-18T11:10:03.771Z,102361.00
2022-12-18T11:13:21.634Z,102355.69
2022-12-18T11:16:25.357Z,102368.28
2022-12-18T11:19:40.792Z,102351.69
2022-12-18T11:22:43.782Z,102338.34
2022-12-18T11:25:56.069Z,102338.13
2022-12-18T11:29:18.338Z,102351.78
2022-12-18T11:32:31.206Z,102349.72
2022-12-18T11:35:39.411Z,102358.16
2022-12-18T11:38:45.295Z,102348.91
2022-12-18T11:42:17.442Z,102320.63
2022-12-18T11:45:29.856Z,102299.94
2022-12-18T11:48:41.595Z,102332.59
2022-12-18T11:51:59.519Z,102341.97
2022-12-18T11:55:12.320Z,102337.88
2022-12-18T11:58:33.360Z,102322.16
2022-12-18T12:01:48.245Z,102333.72
2022-12-18T12:05:20.044Z,102332.56
2022-12-18T12:08:27.946Z,102327.81
2022-12-18T12:11:54.621Z,102321.03
2022-12-18T12:15:20.532Z,102317.09
2022-12-18T12:18:37.719Z,102298.19
2022-12-18T12:22:11.881Z,102302.50
2022-12-18T12:25:54.901Z,102318.94
2022-12-18T12:29:22.935Z,102312.25
2022-12-18T12:32:47.920Z,102319.41
2022-12-18T12:36:26.056Z,102322.84
2022-12-18T12:39:37.556Z,102320.12
2022-12-18T12:43:05.213Z,102305.41
2022-12-18T12:46:12.716Z,102287.31
2022-12-18T12:49:23.874Z,102306.25
2022-12-18T12:52:41.445Z,102337.84
2022-12-18T12:55:45.880Z,102339.88
2022-12-18T13:07:29.595Z,102349.25
2022-12-18T13:10:39.444Z,102349.47
2022-12-18T13:13:55.133Z,102352.88
2022-12-18T13:17:18.114Z,102356.84
2022-12-18T13:20:20.642Z,102362.44
2022-12-18T13:23:25.840Z,102355.00
2022-12-18T13:26:49.474Z,102367.00
2022-12-18T13:29:52.845Z,102371.53
2022-12-18T13:33:27.997Z,102371.22
2022-12-18T13:36:33.993Z,102361.94
2022-12-18T13:39:36.687Z,102368.63
2022-12-18T13:42:59.101Z,102344.16
2022-12-18T13:46:18.827Z,102360.38
2022-12-18T13:49:21.270Z,102382.31
2022-12-18T13:52:27.595Z,102376.53
2022-12-18T13:55:30.413Z,102364.12
2022-12-18T13:58:32.965Z,102357.38
2022-12-18T14:01:35.899Z,102388.03
2022-12-18T14:04:38.710Z,102358.06
2022-12-18T14:07:42.978Z,102383.28
2022-12-18T14:10:52.237Z,102385.78
2022-12-18T14:13:54.549Z,102365.53
2022-12-18T14:16:57.577Z,102379.00
2022-12-18T14:20:01.217Z,102367.28
2022-12-18T14:23:03.856Z,102387.66
2022-12-18T14:26:28.969Z,102357.81
2022-12-18T14:29:32.092Z,102394.06
2022-12-18T14:32:34.463Z,102360.97
2022-12-18T14:35:40.474Z,102399.69
2022-12-18T14:38:42.832Z,102373.59
2022-12-18T14:41:45.973Z,102402.53
2022-12-18T14:45:12.916Z,102385.44
2022-12-18T14:48:41.496Z,102415.03
2022-12-18T14:51:50.031Z,102422.56
2022-12-18T14:54:53.222Z,102390.31
2022-12-18T14:57:57.402Z,102396.69
2022-12-18T15:01:00.011Z,102432.59
2022-12-18T15:04:04.669Z,102432.47
2022-12-18T15:07:22.360Z,102439.53
2022-12-18T15:10:27.048Z,102442.38
2022-12-18T15:13:31.052Z,102414.81
2022-12-18T15:16:34.288Z,102447.88
2022-12-18T15:19:41.719Z,102444.44
2022-12-18T15:22:44.012Z,102429.47
2022-12-18T15:25:48.192Z,102459.66
2022-12-18T15:28:52.959Z,102451.22
2022-12-18T15:32:04.389Z,102430.44
2022-12-18T15:35:20.714Z,102439.75
2022-12-18T15:38:23.294Z,102485.59
2022-12-18T15:41:26.266Z,102479.91
2022-12-18T15:44:29.222Z,102479.91
2022-12-18T15:47:31.651Z,102450.47
2022-12-18T15:50:34.255Z,102498.59
2022-12-18T15:53:36.493Z,102463.38
2022-12-18T15:56:57.551Z,102508.28
2022-12-18T16:00:01.204Z,102484.88
2022-12-18T16:03:05.384Z,102514.03
2022-12-18T16:06:10.269Z,102484.13
2022-12-18T16:09:12.575Z,102513.44
2022-12-18T16:12:21.933Z,102486.69
2022-12-18T16:15:24.905Z,102501.47
2022-12-18T16:18:27.829Z,102516.03
2022-12-18T16:21:33.962Z,102519.84
2022-12-18T16:24:37.311Z,102529.88
2022-12-18T16:27:39.659Z,102502.72
2022-12-18T16:30:42.991Z,102545.59
2022-12-18T16:33:45.312Z,102510.91
2022-12-18T16:36:47.969Z,102517.16
2022-12-18T16:39:50.360Z,102514.25
2022-12-18T16:42:52.896Z,102545.06
2022-12-18T16:45:58.279Z,102553.19
2022-12-18T16:49:01.173Z,102557.78
2022-12-18T16:52:05.185Z,102558.47
2022-12-18T16:55:08.134Z,102553.06
2022-12-18T16:58:11.145Z,102530.25
2022-12-18T17:01:13.727Z,102560.00
2022-12-18T17:04:17.437Z,102568.63
2022-12-18T17:07:19.911Z,102559.03
2022-12-18T17:10:22.180Z,102550.53
2022-12-18T17:13:27.597Z,102543.25
2022-12-18T17:16:40.341Z,102527.44
2022-12-18T17:19:44.856Z,102547.00
2022-12-18T17:22:49.195Z,102488.34
2022-12-18T17:25:56.960Z,102504.56
2022-12-18T17:28:59.573Z,102508.34
2022-12-18T17:32:02.326Z,102543.78
2022-12-18T17:35:07.337Z,102535.09
2022-12-18T17:38:10.920Z,102548.03
2022-12-18T17:41:13.353Z,102530.34
2022-12-18T17:44:17.768Z,102543.72
2022-12-18T17:47:20.679Z,102556.00
2022-12-18T17:50:23.310Z,102553.72
2022-12-18T17:53:25.529Z,102536.50
2022-12-18T17:56:28.167Z,102537.31
2022-12-18T17:59:31.549Z,102560.59
2022-12-18T18:02:34.531Z,102529.00
2022-12-18T18:05:37.228Z,102521.91
2022-12-18T18:08:39.511Z,102553.13
2022-12-18T18:12:00.984Z,102557.72
2022-12-18T18:15:06.018Z,102558.38
2022-12-18T18:18:08.892Z,102551.75
2022-12-18T18:21:13.553Z,102528.25
2022-12-18T18:24:23.270Z,102563.62
2022-12-18T18:27:25.660Z,102535.31
2022-12-18T18:30:29.028Z,102536.16
2022-12-18T18:33:31.845Z,102550.91
2022-12-18T18:36:34.408Z,102559.88
2022-12-18T18:39:37.196Z,102505.38
2022-12-18T18:42:39.796Z,102568.25
2022-12-18T18:45:42.125Z,102576.56
2022-12-18T18:48:47.743Z,102581.16
2022-12-18T18:51:50.968Z,102552.00
2022-12-18T18:55:12.140Z,102577.62
2022-12-18T18:58:15.415Z,102587.84
2022-12-18T19:01:20.929Z,102600.78
2022-12-18T19:04:23.401Z,102579.53
2022-12-18T19:07:30.647Z,102568.69
2022-12-18T19:10:33.415Z,102592.00
2022-12-18T19:13:35.995Z,102596.81
2022-12-18T19:16:38.802Z,102606.00
2022-12-18T19:19:42.703Z,102598.50
2022-12-18T19:22:54.760Z,102579.56
2022-12-18T19:26:26.894Z,102617.91
2022-12-18T19:29:27.646Z,102624.59
2022-12-18T19:32:31.409Z,102619.78
2022-12-18T19:35:34.410Z,102630.81
2022-12-18T19:38:37.406Z,102631.69
2022-12-18T19:41:42.228Z,102600.22
2022-12-18T19:44:45.044Z,102596.25
2022-12-18T19:47:48.307Z,102633.75
2022-12-18T19:50:50.890Z,102620.84
2022-12-18T19:53:58.445Z,102637.91
2022-12-18T19:57:01.638Z,102610.88
2022-12-18T20:00:04.562Z,102619.59
2022-12-18T20:03:23.490Z,102635.66
2022-12-18T20:06:51.665Z,102646.72
2022-12-18T20:10:01.444Z,102638.78
2022-12-18T20:13:08.070Z,102628.38
2022-12-18T20:16:10.858Z,102635.03
2022-12-18T20:19:14.327Z,102634.19
2022-12-18T20:22:18.148Z,102629.19
2022-12-18T20:25:20.859Z,102624.22
2022-12-18T20:28:24.323Z,102666.31
2022-12-18T20:31:27.052Z,102675.03
2022-12-18T20:34:29.352Z,102674.44
2022-12-18T20:37:32.236Z,102624.62
2022-12-18T20:40:35.342Z,102687.97
2022-12-18T20:43:39.060Z,102650.06
2022-12-18T20:46:41.712Z,102649.59
2022-12-18T20:49:45.546Z,102666.72
2022-12-18T20:52:48.645Z,102681.72
2022-12-18T20:55:51.177Z,102692.97
2022-12-18T20:58:57.637Z,102663.75
2022-12-18T21:02:00.405Z,102665.47
2022-12-18T21:05:02.862Z,102684.22
2022-12-18T21:08:05.642Z,102666.69
2022-12-18T21:11:38.924Z,102698.81
2022-12-18T21:14:42.143Z,102702.56
2022-12-18T21:17:45.373Z,102704.63
2022-12-18T21:20:48.025Z,102701.72
2022-12-18T21:23:51.173Z,102678.34
2022-12-18T21:26:53.999Z,102703.78
2022-12-18T21:29:56.428Z,102712.97
2022-12-18T21:32:58.941Z,102703.56
2022-12-18T21:36:07.126Z,102697.75
2022-12-18T21:39:10.302Z,102658.13
2022-12-18T21:42:31.514Z,102685.66
2022-12-18T21:45:34.258Z,102676.69
2022-12-18T21:48:39.056Z,102655.84
2022-12-18T21:51:41.683Z,102679.59
2022-12-18T21:54:43.983Z,102658.13
2022-12-18T21:57:46.508Z,102655.62
2022-12-18T22:00:49.804Z,102689.81
2022-12-18T22:03:52.450Z,102691.28
2022-12-18T22:06:55.177Z,102657.03
2022-12-18T22:09:57.874Z,102652.06
2022-12-18T22:13:01.550Z,102682.47
2022-12-18T22:16:04.087Z,102684.78
2022-12-18T22:19:06.857Z,102682.06
2022-12-18T22:22:09.394Z,102653.91
2022-12-18T22:25:11.765Z,102685.78
2022-12-18T22:28:33.263Z,102684.09
2022-12-18T22:31:36.021Z,102667.00
2022-12-18T22:34:39.496Z,102693.28
2022-12-18T22:37:41.747Z,102683.09
2022-12-18T22:40:44.349Z,102651.38
2022-12-18T22:43:46.586Z,102692.66
2022-12-18T22:47:02.875Z,102693.47
2022-12-18T22:50:12.791Z,102698.88
2022-12-18T22:53:15.353Z,102698.84
2022-12-18T22:56:21.077Z,102675.06
2022-12-18T22:59:24.693Z,102698.19
2022-12-18T23:02:27.062Z,102675.81
2022-12-18T23:05:30.953Z,102681.00
2022-12-18T23:08:36.620Z,102566.13
2022-12-18T23:11:39.300Z,102715.22
2022-12-18T23:14:41.555Z,102704.81
2022-12-18T23:17:44.119Z,102676.03
2022-12-18T23:20:46.357Z,102708.37
2022-12-18T23:23:50.610Z,102685.62
2022-12-18T23:26:52.984Z,102716.09
2022-12-18T23:29:55.573Z,102674.37
2022-12-18T23:33:01.072Z,102682.03
2022-12-18T23:36:04.643Z,102696.44
2022-12-18T23:39:07.119Z,102678.91
2022-12-18T23:42:09.674Z,102675.16
2022-12-18T23:45:17.806Z,102702.69
2022-12-18T23:48:21.232Z,102669.50
2022-12-18T23:51:25.654Z,102690.97
2022-12-18T23:54:33.050Z,102701.81
2022-12-18T23:57:38.476Z,102712.84
